createdAt,value
2024-02-26T00:00:10.030Z,1.20
2024-02-26T00:02:39.231Z,1.98
2024-02-26T00:05:08.345Z,1.10
2024-02-26T00:07:36.519Z,1.60
2024-02-26T00:10:04.936Z,1.38
2024-02-26T00:12:32.908Z,1.30
2024-02-26T00:15:00.549Z,1.50
2024-02-26T00:17:28.088Z,1.30
2024-02-26T00:19:55.686Z,1.38
2024-02-26T00:22:24.142Z,1.70
2024-02-26T00:24:51.701Z,2.05
2024-02-26T00:27:19.292Z,1.70
2024-02-26T00:29:46.891Z,1.15
2024-02-26T00:32:14.435Z,1.63
2024-02-26T00:34:42.031Z,1.50
2024-02-26T00:37:09.626Z,1.98
2024-02-26T00:39:37.133Z,1.60
2024-02-26T00:42:05.102Z,1.30
2024-02-26T00:44:33.025Z,1.67
2024-02-26T00:47:00.589Z,2.00
2024-02-26T00:49:28.144Z,3.05
2024-02-26T00:51:55.660Z,2.05
2024-02-26T00:54:23.210Z,1.83
2024-02-26T00:56:50.817Z,2.10
2024-02-26T00:59:18.357Z,1.90
2024-02-26T01:01:45.946Z,2.17
2024-02-26T01:04:14.045Z,1.88
2024-02-26T01:06:41.786Z,2.60
2024-02-26T01:09:10.402Z,2.60
2024-02-26T01:11:38.352Z,2.35
2024-02-26T01:14:05.989Z,2.92
2024-02-26T01:16:34.475Z,3.03
2024-02-26T01:19:02.235Z,3.08
2024-02-26T01:21:31.153Z,3.25
2024-02-26T01:23:58.684Z,3.28
2024-02-26T01:26:26.229Z,2.92
2024-02-26T01:28:54.160Z,2.97
2024-02-26T01:31:21.779Z,3.10
2024-02-26T01:33:49.486Z,3.05
2024-02-26T01:36:17.308Z,3.97
2024-02-26T01:38:44.980Z,3.35
2024-02-26T01:41:12.635Z,3.78
2024-02-26T01:43:40.189Z,2.28
2024-02-26T01:46:09.804Z,3.35
2024-02-26T01:48:37.556Z,3.45
2024-02-26T01:51:05.560Z,2.70
2024-02-26T01:53:33.491Z,3.15
2024-02-26T01:56:01.144Z,3.63
2024-02-26T01:58:29.013Z,2.65
2024-02-26T02:00:56.715Z,2.97
2024-02-26T02:03:25.572Z,3.05
2024-02-26T02:05:53.306Z,2.90
2024-02-26T02:08:21.004Z,2.85
2024-02-26T02:10:50.219Z,3.08
2024-02-26T02:13:18.216Z,2.63
2024-02-26T02:15:45.816Z,2.72
2024-02-26T02:18:13.556Z,3.15
2024-02-26T02:20:41.204Z,4.00
2024-02-26T02:23:08.776Z,3.15
2024-02-26T02:25:36.315Z,3.33
2024-02-26T02:28:04.100Z,3.67
2024-02-26T02:30:34.396Z,2.63
2024-02-26T02:33:02.340Z,3.45
2024-02-26T02:35:30.088Z,2.85
2024-02-26T02:37:59.165Z,3.88
2024-02-26T02:40:26.771Z,3.30
2024-02-26T02:42:54.312Z,5.05
2024-02-26T02:45:21.979Z,3.25
2024-02-26T02:47:49.579Z,3.85
2024-02-26T02:50:17.368Z,3.63
2024-02-26T02:52:44.956Z,3.30
2024-02-26T02:55:12.944Z,4.25
2024-02-26T02:57:42.353Z,3.47
2024-02-26T03:00:11.838Z,3.85
2024-02-26T03:02:39.544Z,4.00
2024-02-26T03:05:07.622Z,3.47
2024-02-26T03:07:35.194Z,4.60
2024-02-26T03:10:02.848Z,3.97
2024-02-26T03:12:30.841Z,4.30
2024-02-26T03:14:58.597Z,5.07
2024-02-26T03:17:26.441Z,4.35
2024-02-26T03:19:55.331Z,4.15
2024-02-26T03:22:23.136Z,4.90
2024-02-26T03:24:50.712Z,4.85
2024-02-26T03:27:18.372Z,5.30
2024-02-26T03:29:46.070Z,4.55
2024-02-26T03:32:13.708Z,4.65
2024-02-26T03:34:41.593Z,4.32
2024-02-26T03:37:11.791Z,5.20
2024-02-26T03:39:40.030Z,5.15
2024-02-26T03:42:07.880Z,5.65
2024-02-26T03:44:35.478Z,5.47
2024-02-26T03:47:02.985Z,5.47
2024-02-26T03:49:30.598Z,4.28
2024-02-26T03:51:58.303Z,6.10
2024-02-26T03:54:25.972Z,5.50
2024-02-26T03:56:53.593Z,5.18
2024-02-26T03:59:23.068Z,4.85
2024-02-26T04:01:50.609Z,6.50
2024-02-26T04:04:18.232Z,5.50
2024-02-26T04:06:49.281Z,5.50
2024-02-26T04:09:17.054Z,5.55
2024-02-26T04:11:45.410Z,5.22
2024-02-26T04:14:13.726Z,5.78
2024-02-26T04:16:41.394Z,5.07
2024-02-26T04:19:09.091Z,4.70
2024-02-26T04:21:37.241Z,5.55
2024-02-26T04:24:05.056Z,5.70
2024-02-26T04:26:32.904Z,5.53
2024-02-26T04:29:00.433Z,6.15
2024-02-26T04:31:28.600Z,5.10
2024-02-26T04:33:56.403Z,6.10
2024-02-26T04:36:24.468Z,5.70
2024-02-26T04:38:52.147Z,5.70
2024-02-26T04:41:19.698Z,6.45
2024-02-26T04:43:47.223Z,7.93
2024-02-26T04:46:14.743Z,6.90
2024-02-26T04:48:43.255Z,6.85
2024-02-26T04:51:11.062Z,7.20
2024-02-26T04:53:38.651Z,6.57
2024-02-26T04:56:06.667Z,7.22
2024-02-26T04:58:34.226Z,8.07
2024-02-26T05:01:01.918Z,8.80
2024-02-26T05:03:29.624Z,7.15
2024-02-26T05:05:59.254Z,7.50
2024-02-26T05:08:26.919Z,8.15
2024-02-26T05:10:54.533Z,8.30
2024-02-26T05:13:22.084Z,7.07
2024-02-26T05:15:50.836Z,8.07
2024-02-26T05:18:18.476Z,7.50
2024-02-26T05:20:46.109Z,7.30
2024-02-26T05:23:13.734Z,7.88
2024-02-26T05:25:42.406Z,8.82
2024-02-26T05:28:10.511Z,7.05
2024-02-26T05:30:41.033Z,8.40
2024-02-26T05:33:08.731Z,8.32
2024-02-26T05:35:36.285Z,7.72
2024-02-26T05:38:03.922Z,8.70
2024-02-26T05:40:32.118Z,8.27
2024-02-26T05:42:59.718Z,6.45
2024-02-26T05:45:27.306Z,6.45
2024-02-26T05:47:55.007Z,6.50
2024-02-26T05:50:22.662Z,8.68
2024-02-26T05:52:50.252Z,8.25
2024-02-26T05:55:17.940Z,6.88
2024-02-26T05:57:45.524Z,8.30
2024-02-26T06:00:15.554Z,7.25
2024-02-26T06:02:43.606Z,7.40
2024-02-26T06:05:11.341Z,8.40
2024-02-26T06:07:38.822Z,7.97
2024-02-26T06:10:07.684Z,8.00
2024-02-26T06:12:37.962Z,9.75
2024-02-26T06:15:05.963Z,7.72
2024-02-26T06:17:33.680Z,9.43
2024-02-26T06:20:01.929Z,8.13
2024-02-26T06:22:29.832Z,10.18
2024-02-26T06:24:57.391Z,9.05
2024-02-26T06:27:25.583Z,9.85
2024-02-26T06:29:54.998Z,9.55
2024-02-26T06:32:25.437Z,9.73
2024-02-26T06:34:53.156Z,10.65
2024-02-26T06:37:20.920Z,12.57
2024-02-26T06:39:48.702Z,11.27
2024-02-26T06:42:16.314Z,11.45
2024-02-26T06:44:43.935Z,11.93
2024-02-26T06:47:12.750Z,10.50
2024-02-26T06:49:40.587Z,11.50
2024-02-26T06:52:08.467Z,12.93
2024-02-26T06:54:35.976Z,12.45
2024-02-26T06:57:04.297Z,12.52
2024-02-26T06:59:31.926Z,14.77
2024-02-26T07:01:59.529Z,11.60
2024-02-26T07:04:27.207Z,13.02
2024-02-26T07:06:54.799Z,14.43
2024-02-26T07:09:22.610Z,14.70
2024-02-26T07:11:50.263Z,15.02
2024-02-26T07:14:17.870Z,12.90
2024-02-26T07:16:45.508Z,14.95
2024-02-26T07:19:13.781Z,15.02
2024-02-26T07:21:41.895Z,14.45
2024-02-26T07:24:09.658Z,15.20
2024-02-26T07:26:37.333Z,18.00
2024-02-26T07:29:05.328Z,17.33
2024-02-26T07:31:32.941Z,14.80
2024-02-26T07:34:00.870Z,17.95
2024-02-26T07:36:28.661Z,16.15
2024-02-26T07:38:56.291Z,17.20
2024-02-26T07:41:23.893Z,16.33
2024-02-26T07:43:51.445Z,15.55
2024-02-26T07:46:19.233Z,16.10
2024-02-26T07:48:47.181Z,17.73
2024-02-26T07:51:15.972Z,19.17
2024-02-26T07:53:43.586Z,16.17
2024-02-26T07:56:11.683Z,16.65
2024-02-26T07:58:39.234Z,16.48
2024-02-26T08:01:06.836Z,16.10
2024-02-26T08:03:34.463Z,14.02
2024-02-26T08:06:02.197Z,14.38
2024-02-26T08:08:29.808Z,12.95
2024-02-26T08:10:57.424Z,13.75
2024-02-26T08:13:25.169Z,13.07
2024-02-26T08:15:52.773Z,13.35
2024-02-26T08:18:21.318Z,10.90
2024-02-26T08:20:50.114Z,12.80
2024-02-26T08:23:18.108Z,10.10
2024-02-26T08:25:45.757Z,10.35
2024-02-26T08:28:14.419Z,10.38
2024-02-26T08:30:42.014Z,10.57
2024-02-26T08:33:10.106Z,9.50
2024-02-26T08:35:38.389Z,9.05
2024-02-26T08:38:06.152Z,10.20
2024-02-26T08:40:33.729Z,7.97
2024-02-26T08:43:01.260Z,7.13
2024-02-26T08:45:31.325Z,7.68
2024-02-26T08:47:59.742Z,8.20
2024-02-26T08:50:27.473Z,7.53
2024-02-26T08:52:55.104Z,7.00
2024-02-26T08:55:22.678Z,7.35
2024-02-26T08:57:50.353Z,6.53
2024-02-26T09:00:18.865Z,5.00
2024-02-26T09:02:46.571Z,7.03
2024-02-26T09:05:14.253Z,6.47
2024-02-26T09:07:41.985Z,7.88
2024-02-26T09:10:11.598Z,7.05
2024-02-26T09:12:40.819Z,6.10
2024-02-26T09:15:09.358Z,6.75
2024-02-26T09:17:37.484Z,7.10
2024-02-26T09:20:06.950Z,6.05
2024-02-26T09:22:36.121Z,5.63
2024-02-26T09:25:04.690Z,6.15
2024-02-26T09:27:32.748Z,5.38
2024-02-26T09:30:00.704Z,5.05
2024-02-26T09:32:28.911Z,4.82
2024-02-26T09:34:56.563Z,4.82
2024-02-26T09:37:24.142Z,4.70
2024-02-26T09:39:51.844Z,3.63
2024-02-26T09:42:22.249Z,4.72
2024-02-26T09:44:56.524Z,4.88
2024-02-26T09:47:25.917Z,3.63
2024-02-26T09:49:55.475Z,3.92
2024-02-26T09:52:23.828Z,4.85
2024-02-26T09:54:51.572Z,4.63
2024-02-26T09:57:19.328Z,4.07
2024-02-26T09:59:51.066Z,4.43
2024-02-26T10:02:21.798Z,3.72
2024-02-26T10:04:52.572Z,4.43
2024-02-26T10:07:20.800Z,4.60
2024-02-26T10:09:48.647Z,4.43
2024-02-26T10:12:18.601Z,4.63
2024-02-26T10:14:46.412Z,4.78
2024-02-26T10:17:14.177Z,4.60
2024-02-26T10:19:41.973Z,4.10
2024-02-26T10:22:09.720Z,3.83
2024-02-26T10:24:37.322Z,3.83
2024-02-26T10:27:05.231Z,4.00
2024-02-26T10:29:33.470Z,5.07
2024-02-26T10:32:01.179Z,4.35
2024-02-26T10:34:30.413Z,4.82
2024-02-26T10:36:58.179Z,4.22
2024-02-26T10:39:25.803Z,5.43
2024-02-26T10:41:54.567Z,4.78
2024-02-26T10:44:22.153Z,3.63
2024-02-26T10:46:51.180Z,4.10
2024-02-26T10:49:21.554Z,3.80
2024-02-26T10:51:58.846Z,4.53
2024-02-26T10:54:29.860Z,4.85
2024-02-26T10:57:02.245Z,4.82
2024-02-26T11:01:58.582Z,4.15
2024-02-26T11:04:28.918Z,4.22
2024-02-26T11:07:06.063Z,3.67
2024-02-26T11:09:35.021Z,4.07
2024-02-26T11:12:05.955Z,4.93
2024-02-26T11:14:33.778Z,4.20
2024-02-26T11:17:02.431Z,5.00
2024-02-26T11:19:33.979Z,4.57
2024-02-26T11:22:12.352Z,4.43
2024-02-26T11:24:46.796Z,3.67
2024-02-26T11:27:14.811Z,3.97
2024-02-26T11:29:46.783Z,4.40
2024-02-26T11:32:15.420Z,3.38
2024-02-26T11:34:45.087Z,4.03
2024-02-26T11:37:14.323Z,5.05
2024-02-26T11:39:46.902Z,5.53
2024-02-26T11:42:18.220Z,4.50
2024-02-26T11:44:46.126Z,4.37
2024-02-26T11:47:24.521Z,4.35
2024-02-26T11:49:52.344Z,4.20
2024-02-26T11:52:20.113Z,5.82
2024-02-26T11:54:53.853Z,5.13
2024-02-26T11:57:24.354Z,4.85
2024-02-26T11:59:52.551Z,5.15
2024-02-26T12:02:45.064Z,4.72
2024-02-26T12:05:25.133Z,4.43
2024-02-26T12:07:58.271Z,4.38
2024-02-26T12:10:40.223Z,4.40
2024-02-26T12:13:18.622Z,5.47
2024-02-26T12:16:08.222Z,3.70
2024-02-26T12:18:36.926Z,3.72
2024-02-26T12:21:07.957Z,4.63
2024-02-26T12:23:35.995Z,3.63
2024-02-26T12:26:06.750Z,3.88
2024-02-26T12:28:36.436Z,3.63
2024-02-26T12:31:04.147Z,3.78
2024-02-26T12:33:33.096Z,4.18
2024-02-26T12:36:01.330Z,3.58
2024-02-26T12:38:30.621Z,4.80
2024-02-26T12:40:58.372Z,4.45
2024-02-26T12:43:26.138Z,4.43
2024-02-26T12:45:53.917Z,3.53
2024-02-26T12:48:21.706Z,3.50
2024-02-26T12:50:49.780Z,3.00
2024-02-26T12:53:17.684Z,4.22
2024-02-26T12:55:45.872Z,4.20
2024-02-26T12:58:14.503Z,3.22
2024-02-26T13:00:42.372Z,4.05
2024-02-26T13:03:11.528Z,2.53
2024-02-26T13:05:39.799Z,3.03
2024-02-26T13:08:09.478Z,3.72
2024-02-26T13:10:38.176Z,3.17
2024-02-26T13:13:06.417Z,4.45
2024-02-26T13:15:34.226Z,4.18
2024-02-26T13:18:11.868Z,3.20
2024-02-26T13:20:41.277Z,3.70
2024-02-26T13:23:10.240Z,4.43
2024-02-26T13:25:42.625Z,4.05
2024-02-26T13:28:20.574Z,3.45
2024-02-26T13:30:58.791Z,3.45
2024-02-26T13:33:28.034Z,2.55
2024-02-26T13:35:57.746Z,3.22
2024-02-26T13:38:25.676Z,2.45
2024-02-26T13:40:53.576Z,3.10
2024-02-26T13:43:21.477Z,3.58
2024-02-26T13:45:49.747Z,3.90
2024-02-26T13:48:17.806Z,2.65
2024-02-26T13:50:46.738Z,3.65
2024-02-26T13:53:15.723Z,2.75
2024-02-26T13:55:45.176Z,2.90
2024-02-26T13:58:16.509Z,3.63
2024-02-26T14:00:44.697Z,2.70
2024-02-26T14:03:12.677Z,3.33
2024-02-26T14:05:40.651Z,2.78
2024-02-26T14:08:09.078Z,2.65
2024-02-26T14:10:37.372Z,3.10
2024-02-26T14:13:05.171Z,2.80
2024-02-26T14:15:35.089Z,3.20
2024-02-26T14:18:05.424Z,3.17
2024-02-26T14:20:33.128Z,2.42
2024-02-26T14:23:01.740Z,2.58
2024-02-26T14:25:31.419Z,2.03
2024-02-26T14:28:00.105Z,2.35
2024-02-26T14:30:28.628Z,2.05
2024-02-26T14:32:56.761Z,2.50
2024-02-26T14:35:24.606Z,2.25
2024-02-26T14:37:53.126Z,1.50
2024-02-26T14:40:20.821Z,1.77
2024-02-26T14:42:49.824Z,1.95
2024-02-26T14:45:17.814Z,2.00
2024-02-26T14:47:45.620Z,1.73
2024-02-26T14:50:13.547Z,2.08
2024-02-26T14:52:41.293Z,1.90
2024-02-26T14:55:09.012Z,1.88
2024-02-26T14:57:36.680Z,1.60
2024-02-26T15:00:06.632Z,1.67
2024-02-26T15:02:34.272Z,1.40
2024-02-26T15:05:01.867Z,1.48
2024-02-26T15:07:29.531Z,1.25
2024-02-26T15:10:00.724Z,1.20
2024-02-26T15:12:28.963Z,1.52
2024-02-26T15:14:57.845Z,1.38
2024-02-26T15:17:25.665Z,1.95
2024-02-26T15:19:53.308Z,2.03
2024-02-26T15:22:20.953Z,1.52
2024-02-26T15:24:48.677Z,2.58
2024-02-26T15:27:16.342Z,2.22
2024-02-26T15:29:43.879Z,2.40
2024-02-26T15:32:12.803Z,2.08
2024-02-26T15:34:40.522Z,2.78
2024-02-26T15:37:08.388Z,1.88
2024-02-26T15:39:37.565Z,2.70
2024-02-26T15:42:05.375Z,2.50
2024-02-26T15:44:32.906Z,2.63
2024-02-26T15:47:00.917Z,2.35
2024-02-26T15:49:28.521Z,2.75
2024-02-26T15:51:56.138Z,1.88
2024-02-26T15:54:23.707Z,1.52
2024-02-26T15:56:51.393Z,3.28
2024-02-26T15:59:20.645Z,2.10
2024-02-26T16:01:48.830Z,2.00
2024-02-26T16:04:16.551Z,2.55
2024-02-26T16:06:50.964Z,2.50
2024-02-26T16:09:18.538Z,2.20
2024-02-26T16:11:46.269Z,1.90
2024-02-26T16:14:40.601Z,2.70
2024-02-26T16:17:35.942Z,3.38
2024-02-26T16:20:06.288Z,2.88
2024-02-26T16:22:34.058Z,2.40
2024-02-26T16:25:01.639Z,2.92
2024-02-26T16:27:29.309Z,2.72
2024-02-26T16:29:57.429Z,2.80
2024-02-26T16:32:25.145Z,2.78
2024-02-26T16:34:53.082Z,2.58
2024-02-26T16:37:20.737Z,2.40
2024-02-26T16:39:48.306Z,3.03
2024-02-26T16:42:16.057Z,2.70
2024-02-26T16:44:43.820Z,2.85
2024-02-26T16:47:11.743Z,3.35
2024-02-26T16:49:39.509Z,3.30
2024-02-26T16:52:07.457Z,2.13
2024-02-26T16:54:35.072Z,2.83
2024-02-26T16:57:03.219Z,2.10
2024-02-26T16:59:31.159Z,2.83
2024-02-26T17:02:00.247Z,3.40
2024-02-26T17:04:28.414Z,3.78
2024-02-26T17:06:56.516Z,2.42
2024-02-26T17:09:24.687Z,4.57
2024-02-26T17:11:54.504Z,3.33
2024-02-26T17:14:23.087Z,3.20
2024-02-26T17:16:54.209Z,3.60
2024-02-26T17:19:21.928Z,3.92
2024-02-26T17:21:49.542Z,3.08
2024-02-26T17:24:17.166Z,3.33
2024-02-26T17:26:44.690Z,2.90
2024-02-26T17:29:12.557Z,3.20
2024-02-26T17:31:43.312Z,4.10
2024-02-26T17:34:12.294Z,3.17
2024-02-26T17:36:40.977Z,2.90
2024-02-26T17:39:08.640Z,3.13
2024-02-26T17:41:36.221Z,3.75
2024-02-26T17:44:03.908Z,3.65
2024-02-26T17:46:31.486Z,3.15
2024-02-26T17:48:59.255Z,2.67
2024-02-26T17:51:27.000Z,2.95
2024-02-26T17:53:55.103Z,3.38
2024-02-26T17:56:22.736Z,2.67
2024-02-26T17:58:50.630Z,3.33
2024-02-26T18:01:18.357Z,3.78
2024-02-26T18:03:46.135Z,3.38
2024-02-26T18:06:13.929Z,3.50
2024-02-26T18:08:41.586Z,3.10
2024-02-26T18:11:11.380Z,3.90
2024-02-26T18:13:43.808Z,2.42
2024-02-26T18:18:39.909Z,4.20
2024-02-26T18:21:07.961Z,2.88
2024-02-26T18:23:36.076Z,3.55
2024-02-26T18:26:04.168Z,3.78
2024-02-26T18:28:32.345Z,3.88
2024-02-26T18:31:00.709Z,3.70
2024-02-26T18:33:30.363Z,2.83
2024-02-26T18:35:58.838Z,3.20
2024-02-26T18:38:27.725Z,3.80
2024-02-26T18:40:55.859Z,3.38
2024-02-26T18:43:23.941Z,3.55
2024-02-26T18:45:52.546Z,3.70
2024-02-26T18:48:22.188Z,4.25
2024-02-26T18:50:50.349Z,2.83
2024-02-26T18:53:19.610Z,2.80
2024-02-26T18:55:48.091Z,2.10
2024-02-26T18:58:16.156Z,2.65
2024-02-26T19:00:44.326Z,2.38
2024-02-26T19:03:12.380Z,2.00
2024-02-26T19:05:40.364Z,2.50
2024-02-26T19:08:09.674Z,2.80
2024-02-26T19:10:38.592Z,2.38
2024-02-26T19:13:09.688Z,1.77
2024-02-26T19:15:39.675Z,1.60
2024-02-26T19:18:08.035Z,1.52
2024-02-26T19:20:36.005Z,2.08
2024-02-26T19:23:04.384Z,1.70
2024-02-26T19:25:31.999Z,1.83
2024-02-26T19:27:59.643Z,1.83
2024-02-26T19:30:27.334Z,1.73
2024-02-26T19:32:55.041Z,1.73
2024-02-26T19:35:22.625Z,1.80
2024-02-26T19:37:50.256Z,1.98
2024-02-26T19:40:17.910Z,1.77
2024-02-26T19:42:45.476Z,2.33
2024-02-26T19:45:13.377Z,1.85
2024-02-26T19:47:41.426Z,2.03
2024-02-26T19:50:10.194Z,2.33
2024-02-26T19:52:37.845Z,2.13
2024-02-26T19:55:05.986Z,2.50
2024-02-26T19:57:34.912Z,2.85
2024-02-26T20:00:03.527Z,2.28
2024-02-26T20:02:31.158Z,1.90
2024-02-26T20:04:58.648Z,2.50
2024-02-26T20:07:26.191Z,2.50
2024-02-26T20:09:53.698Z,4.25
2024-02-26T20:12:21.343Z,2.60
2024-02-26T20:14:48.899Z,2.90
2024-02-26T20:17:17.195Z,3.33
2024-02-26T20:19:45.044Z,3.47
2024-02-26T20:22:14.646Z,3.45
2024-02-26T20:24:42.395Z,3.30
2024-02-26T20:27:12.083Z,2.78
2024-02-26T20:29:40.127Z,3.28
2024-02-26T20:32:08.233Z,3.10
2024-02-26T20:34:35.992Z,3.78
2024-02-26T20:37:03.863Z,5.25
2024-02-26T20:39:31.548Z,3.15
2024-02-26T20:41:59.221Z,2.28
2024-02-26T20:44:26.791Z,4.43
2024-02-26T20:46:57.025Z,2.95
2024-02-26T20:49:24.781Z,3.42
2024-02-26T20:51:52.428Z,3.45
2024-02-26T20:54:20.577Z,3.17
2024-02-26T20:56:50.770Z,3.05
2024-02-26T20:59:18.689Z,3.22
2024-02-26T21:01:46.427Z,3.80
2024-02-26T21:04:13.194Z,3.15
2024-02-26T21:06:40.913Z,4.38
2024-02-26T21:09:09.409Z,3.22
2024-02-26T21:11:37.473Z,3.05
2024-02-26T21:14:06.124Z,4.57
2024-02-26T21:16:33.733Z,4.05
2024-02-26T21:19:03.290Z,3.15
2024-02-26T21:21:31.749Z,4.50
2024-02-26T21:24:02.147Z,4.03
2024-02-26T21:26:31.294Z,3.53
2024-02-26T21:28:58.854Z,4.38
2024-02-26T21:31:26.470Z,4.20
2024-02-26T21:33:54.230Z,4.07
2024-02-26T21:36:22.359Z,4.25
2024-02-26T21:38:51.353Z,4.25
2024-02-26T21:41:20.597Z,4.35
2024-02-26T21:43:51.815Z,3.88
2024-02-26T21:46:20.539Z,4.33
2024-02-26T21:48:48.653Z,3.15
2024-02-26T21:51:16.524Z,5.05
2024-02-26T21:53:46.508Z,3.60
2024-02-26T21:56:15.671Z,3.33
2024-02-26T21:58:43.273Z,4.32
2024-02-26T22:01:10.879Z,4.32
2024-02-26T22:03:38.620Z,4.03
2024-02-26T22:06:07.283Z,3.90
2024-02-26T22:08:34.950Z,4.07
2024-02-26T22:11:03.647Z,4.25
2024-02-26T22:13:31.387Z,4.68
2024-02-26T22:15:59.150Z,5.07
2024-02-26T22:18:26.894Z,3.80
2024-02-26T22:20:54.633Z,4.78
2024-02-26T22:23:22.259Z,4.75
2024-02-26T22:25:50.210Z,3.80
2024-02-26T22:28:17.833Z,4.32
2024-02-26T22:30:45.533Z,4.13
2024-02-26T22:33:13.253Z,4.30
2024-02-26T22:35:40.996Z,3.78
2024-02-26T22:38:08.620Z,4.65
2024-02-26T22:40:36.167Z,4.35
2024-02-26T22:43:03.790Z,3.67
2024-02-26T22:45:31.336Z,4.72
2024-02-26T22:47:59.234Z,3.85
2024-02-26T22:50:26.925Z,3.63
2024-02-26T22:52:54.926Z,3.95
2024-02-26T22:55:24.777Z,4.85
2024-02-26T22:57:52.892Z,3.40
2024-02-26T23:00:32.436Z,3.50
2024-02-26T23:03:01.469Z,3.00
2024-02-26T23:05:30.047Z,3.22
2024-02-26T23:07:58.554Z,3.95
2024-02-26T23:10:26.812Z,5.00
2024-02-26T23:12:54.626Z,3.17
2024-02-26T23:15:22.411Z,4.15
2024-02-26T23:17:50.296Z,3.90
2024-02-26T23:20:18.225Z,4.00
2024-02-26T23:22:47.557Z,3.42
2024-02-26T23:25:16.822Z,4.13
2024-02-26T23:27:46.177Z,4.95
2024-02-26T23:30:14.945Z,3.80
2024-02-26T23:32:43.243Z,4.80
2024-02-26T23:35:11.563Z,4.32
2024-02-26T23:37:39.353Z,5.28
2024-02-26T23:40:08.158Z,3.70
2024-02-26T23:42:38.124Z,4.78
2024-02-26T23:45:08.664Z,4.60
2024-02-26T23:47:36.607Z,4.05
2024-02-26T23:50:05.269Z,4.82
2024-02-26T23:52:32.965Z,4.72
2024-02-26T23:55:00.629Z,4.05
2024-02-26T23:57:28.180Z,3.10
2024-02-26T23:59:55.893Z,3.58
